Observations for VENEZIA TESSERA, Italy (LIPZ)

LIPZ 200620Z 03004KT 360V060 CAVOK 14/07 Q1027 NOSIG
LIPZ 200550Z 03005KT CAVOK 12/07 Q1027 NOSIG
LIPZ 200520Z 03004KT CAVOK 11/07 Q1027 NOSIG
LIPZ 200450Z 03005KT CAVOK 10/07 Q1027 NOSIG
LIPZ 200420Z 02006KT CAVOK 09/07 Q1027 NOSIG
LIPZ 200350Z 02006KT CAVOK 10/06 Q1027 NOSIG
LIPZ 200320Z 35006KT CAVOK 10/06 Q1027 NOSIG
LIPZ 200250Z 33003KT CAVOK 10/06 Q1027 NOSIG
LIPZ 200220Z 34003KT CAVOK 11/07 Q1027 NOSIG
LIPZ 200150Z 36003KT CAVOK 11/06 Q1027 NOSIG
LIPZ 200120Z 01001KT CAVOK 11/05 Q1027 NOSIG
LIPZ 200050Z VRB02KT CAVOK 13/05 Q1027 NOSIG
LIPZ 200020Z 23004KT CAVOK 12/07 Q1027 NOSIG
LIPZ 192350Z 24003KT CAVOK 12/07 Q1028 NOSIG
LIPZ 192320Z 26002KT CAVOK 12/08 Q1028 NOSIG
LIPZ 192250Z 31002KT CAVOK 13/05 Q1028 NOSIG
LIPZ 192220Z 32004KT CAVOK 14/05 Q1028 NOSIG
LIPZ 192150Z 25003KT CAVOK 15/07 Q1028 NOSIG
LIPZ 192120Z 30003KT CAVOK 15/08 Q1028 NOSIG
LIPZ 192050Z 31002KT CAVOK 15/04 Q1028 NOSIG
LIPZ 192020Z 28003KT CAVOK 16/03 Q1028 NOSIG
LIPZ 191950Z 28003KT CAVOK 16/05 Q1028 NOSIG
LIPZ 191920Z 26003KT CAVOK 16/04 Q1028 NOSIG
LIPZ 191850Z 24006KT CAVOK 15/07 Q1027 NOSIG
LIPZ 191820Z 23005KT CAVOK 16/07 Q1027 NOSIG
LIPZ 191750Z 23005KT CAVOK 17/07 Q1027 NOSIG
LIPZ 191720Z 23005KT CAVOK 19/07 Q1027 NOSIG
LIPZ 191650Z 22005KT CAVOK 19/06 Q1027 NOSIG
LIPZ 191620Z 20003KT 150V240 CAVOK 20/05 Q1028 NOSIG
LIPZ 191550Z 16003KT 120V210 CAVOK 20/03 Q1028 NOSIG
LIPZ 191520Z 15003KT 110V190 CAVOK 20/03 Q1028 NOSIG
LIPZ 191450Z 18003KT 140V210 CAVOK 20/04 Q1028 NOSIG
LIPZ 191420Z 17003KT 130V220 CAVOK 20/05 Q1028 NOSIG
LIPZ 191350Z 18003KT 130V230 CAVOK 20/03 Q1028 NOSIG
LIPZ 191320Z 17004KT 120V220 CAVOK 19/05 Q1029 NOSIG
LIPZ 191250Z 17004KT 130V220 CAVOK 20/04 Q1029 NOSIG
LIPZ 191220Z 15007KT 130V190 CAVOK 19/05 Q1029 NOSIG
LIPZ 191150Z 15007KT 120V200 CAVOK 19/07 Q1030 NOSIG
LIPZ 191120Z 16005KT 130V190 CAVOK 19/05 Q1030 NOSIG
LIPZ 191050Z 16006KT 110V190 CAVOK 19/06 Q1030 NOSIG
LIPZ 191020Z 09005KT 040V140 CAVOK 19/05 Q1030 NOSIG
LIPZ 190950Z 11006KT 080V140 CAVOK 19/06 Q1030 NOSIG
LIPZ 190920Z 09008KT 060V120 CAVOK 18/06 Q1030 NOSIG
LIPZ 190850Z 08008KT CAVOK 18/07 Q1030 NOSIG
LIPZ 190820Z 07009KT CAVOK 17/06 Q1030 NOSIG
LIPZ 190750Z 06009KT CAVOK 17/07 Q1030 NOSIG
LIPZ 190720Z 05008KT CAVOK 16/07 Q1030 NOSIG
LIPZ 190650Z 04007KT CAVOK 15/07 Q1030 NOSIG
LIPZ 190620Z 05007KT CAVOK 14/07 Q1029 NOSIG
LIPZ 190550Z 05008KT CAVOK 14/06 Q1029 NOSIG